• Join FlightAware (Why Join?)
  • Login
  • US Flag 
12:11PM EDT


 

Airport Tracker/Info


-or-


 

Live Flight TrackerFlight Track Log ✈ TAM3196 ✈ 12-Jul-2013 ✈ SBGL / GIG - SBVT / VIX

Flight Track Log - Related Links

Times and Time Zones

All times are in EDT time to prevent confusion due to time zone crossing. See the TAM3196 flight status page for this flight to view local times or setup timezone preferences in your user account.

Time Position Orientation Groundspeed Altitude Reporting Facility
EDT Latitude Longitude Course Direction KTS MPH feet Rate Location/Type
04:59PM -21.0087 -41.1398 48° Northeast  Level Estimated
05:00PM -20.9622 -41.0865 47° Northeast  Level Estimated
05:01PM -20.9157 -41.0333 47° Northeast  Level Estimated
05:02PM -20.8691 -40.9801 47° Northeast  Level Estimated
05:03PM -20.8226 -40.9270 47° Northeast  Level Estimated
05:04PM -20.7760 -40.8738 47° Northeast  Level Estimated
05:05PM -20.7294 -40.8208 47° Northeast  Level Estimated
05:06PM -20.6828 -40.7677 47° Northeast  Level Estimated
05:07PM -20.6362 -40.7147 47° Northeast  Level Estimated
05:08PM -20.5896 -40.6617 47° Northeast  Level Estimated
05:09PM -20.5429 -40.6087 47° Northeast  Level Estimated
05:10PM -20.4963 -40.5558 47° Northeast  Level Estimated
05:11PM -20.4496 -40.5029 47° Northeast  Level Estimated
05:12PM -20.4029 -40.4500 47° Northeast  Level Estimated
05:13PM -20.3561 -40.3972 47° Northeast  Level Estimated
05:14PM -20.3094 -40.3444 47° Northeast  Level Estimated
05:15PM -20.2627 -40.2916 47° Northeast  Level Estimated
05:16PM -20.2581 -40.2864 47° Northeast  Level Estimated
05:17PM -20.2581 -40.2864 13° North  Level Estimated
05:18PM -20.2581 -40.2864 13° North  Level Estimated
05:19PM -20.2581 -40.2864 13° North  Level Estimated
05:20PM -20.2581 -40.2864 13° North  Level Estimated
05:21PM -20.2581 -40.2864 13° North  Level Estimated
05:22PM -20.2581 -40.2864 13° North  Level Estimated
05:23PM -20.2581 -40.2864 13° North  Level Estimated
05:24PM -20.2581 -40.2864 13° North  Level Estimated
05:25PM -20.2581 -40.2864 13° North  Level Estimated
05:26PM -20.2581 -40.2864 13° North  Level Estimated
05:27PM -20.2581 -40.2864 13° North  Level Estimated
05:28PM -20.2581 -40.2864 13° North  Level Estimated
05:29PM -20.2581 -40.2864 13° North  Level Estimated
05:30PM -20.2581 -40.2864 13° North  Level Estimated
05:31PM -20.2581 -40.2864 13° North  Level Estimated